createdAt,value
2023-03-08T00:01:19.427Z,58.00
2023-03-08T00:03:46.966Z,59.20
2023-03-08T00:06:14.757Z,53.70
2023-03-08T00:08:48.766Z,53.80
2023-03-08T00:11:17.323Z,57.40
2023-03-08T00:13:44.554Z,55.80
2023-03-08T00:16:12.080Z,55.70
2023-03-08T00:18:42.643Z,52.70
2023-03-08T00:21:14.534Z,51.30
2023-03-08T00:23:44.392Z,50.80
2023-03-08T00:26:11.684Z,55.90
2023-03-08T00:28:38.662Z,62.20
2023-03-08T00:31:07.221Z,55.90
2023-03-08T00:33:35.200Z,58.40
2023-03-08T00:36:22.029Z,54.70
2023-03-08T00:38:50.522Z,52.70
2023-03-08T00:41:17.721Z,54.90
2023-03-08T00:43:44.927Z,52.80
2023-03-08T00:46:12.045Z,49.70
2023-03-08T00:48:38.966Z,59.40
2023-03-08T00:51:05.998Z,55.70
2023-03-08T00:53:32.704Z,54.80
2023-03-08T00:56:00.038Z,63.80
2023-03-08T00:58:30.522Z,56.00
2023-03-08T01:00:57.840Z,58.00
2023-03-08T01:03:25.207Z,60.60
2023-03-08T01:05:54.134Z,59.00
2023-03-08T01:08:21.585Z,59.70
2023-03-08T01:10:49.300Z,62.80
2023-03-08T01:13:16.842Z,58.10
2023-03-08T01:15:44.072Z,61.10
2023-03-08T01:18:10.581Z,62.30
2023-03-08T01:20:38.017Z,61.20
2023-03-08T01:23:04.833Z,54.90
2023-03-08T01:25:31.442Z,61.70
2023-03-08T01:27:58.088Z,57.50
2023-03-08T01:30:24.793Z,56.90
2023-03-08T01:32:51.339Z,63.50
2023-03-08T01:35:18.246Z,57.00
2023-03-08T01:37:52.933Z,50.40
2023-03-08T01:40:20.726Z,63.20
2023-03-08T01:42:47.286Z,61.60
2023-03-08T01:45:52.575Z,57.00
2023-03-08T01:48:20.098Z,55.90
2023-03-08T01:51:08.412Z,59.90
2023-03-08T01:53:35.489Z,48.40
2023-03-08T01:56:02.336Z,48.20
2023-03-08T01:58:29.114Z,60.70
2023-03-08T02:00:57.885Z,62.20
2023-03-08T02:03:25.056Z,54.90
2023-03-08T02:05:51.701Z,55.90
2023-03-08T02:08:21.185Z,56.20
2023-03-08T02:10:49.857Z,56.70
2023-03-08T02:13:22.379Z,53.10
2023-03-08T02:15:49.623Z,55.00
2023-03-08T02:18:18.352Z,52.50
2023-03-08T02:20:47.557Z,46.70
2023-03-08T02:23:16.781Z,57.30
2023-03-08T02:26:00.370Z,51.30
2023-03-08T02:28:28.631Z,50.20
2023-03-08T02:30:55.608Z,57.80
2023-03-08T02:33:25.047Z,49.40
2023-03-08T02:35:52.304Z,51.70
2023-03-08T02:38:19.710Z,52.60
2023-03-08T02:40:50.749Z,48.10
2023-03-08T02:43:18.376Z,51.50
2023-03-08T02:45:44.963Z,51.30
2023-03-08T02:48:11.754Z,52.10
2023-03-08T02:50:41.387Z,49.90
2023-03-08T02:53:09.072Z,45.90
2023-03-08T02:55:35.807Z,52.80
2023-03-08T02:58:05.083Z,48.20
2023-03-08T03:00:31.877Z,50.90
2023-03-08T03:02:59.225Z,52.90
2023-03-08T03:05:26.797Z,45.90
2023-03-08T03:07:58.582Z,51.20
2023-03-08T03:10:27.517Z,43.90
2023-03-08T03:12:55.359Z,49.90
2023-03-08T03:15:24.684Z,49.10
2023-03-08T03:17:54.464Z,46.50
2023-03-08T03:20:20.954Z,46.70
2023-03-08T03:22:48.463Z,45.20
2023-03-08T03:25:16.359Z,46.70
2023-03-08T03:27:44.460Z,48.50
2023-03-08T03:30:11.819Z,45.40
2023-03-08T03:32:39.123Z,53.40
2023-03-08T03:35:07.240Z,43.60
2023-03-08T03:37:36.202Z,48.80
2023-03-08T03:40:04.227Z,47.20
2023-03-08T03:42:31.813Z,43.00
2023-03-08T03:45:05.745Z,44.40
2023-03-08T03:47:32.585Z,48.50
2023-03-08T03:50:00.960Z,41.60
2023-03-08T03:52:33.079Z,41.30
2023-03-08T03:55:02.299Z,47.80
2023-03-08T03:57:29.081Z,48.60
2023-03-08T04:00:17.084Z,46.80
2023-03-08T04:02:47.735Z,34.70
2023-03-08T04:05:16.119Z,46.00
2023-03-08T04:07:45.669Z,45.50
2023-03-08T04:10:14.381Z,43.50
2023-03-08T04:12:43.733Z,37.60
2023-03-08T04:15:11.273Z,47.50
2023-03-08T04:17:40.546Z,51.60
2023-03-08T04:20:08.439Z,56.30
2023-03-08T04:22:40.864Z,46.80
2023-03-08T04:25:16.255Z,51.70
2023-03-08T04:27:48.663Z,47.60
2023-03-08T04:30:15.938Z,39.80
2023-03-08T04:32:44.084Z,48.60
2023-03-08T04:35:11.142Z,41.50
2023-03-08T04:37:39.664Z,47.30
2023-03-08T04:40:10.730Z,47.30
2023-03-08T04:42:44.838Z,53.70
2023-03-08T04:45:13.205Z,50.00
2023-03-08T04:47:39.971Z,56.20
2023-03-08T04:50:08.141Z,46.40
2023-03-08T04:52:35.373Z,47.50
2023-03-08T04:55:05.349Z,47.60
2023-03-08T04:57:32.224Z,46.10
2023-03-08T04:59:59.509Z,50.80
2023-03-08T05:02:26.362Z,50.90
2023-03-08T05:04:53.346Z,53.20
2023-03-08T05:07:22.309Z,50.00
2023-03-08T05:09:49.434Z,47.70
2023-03-08T05:12:16.009Z,52.30
2023-03-08T05:14:55.086Z,42.50
2023-03-08T05:17:23.740Z,46.70
2023-03-08T05:19:55.205Z,49.00
2023-03-08T05:22:25.852Z,48.70
2023-03-08T05:24:54.934Z,47.10
2023-03-08T05:27:21.606Z,50.80
2023-03-08T05:29:51.067Z,50.50
2023-03-08T05:32:22.273Z,50.10
2023-03-08T05:34:49.864Z,51.70
2023-03-08T05:37:27.224Z,50.90
2023-03-08T05:39:55.715Z,51.80
2023-03-08T05:42:22.987Z,42.90
2023-03-08T05:44:50.496Z,48.90
2023-03-08T05:47:20.772Z,43.70
2023-03-08T05:49:51.348Z,52.50
2023-03-08T05:52:18.412Z,52.50
2023-03-08T05:54:45.094Z,46.60
2023-03-08T05:57:15.214Z,48.10
2023-03-08T05:59:42.311Z,46.30
2023-03-08T06:02:10.908Z,42.50
2023-03-08T06:04:41.504Z,42.60
2023-03-08T06:07:14.605Z,48.00
2023-03-08T06:09:45.351Z,49.70
2023-03-08T06:12:21.113Z,52.10
2023-03-08T06:14:51.430Z,49.20
2023-03-08T06:17:26.710Z,55.60
2023-03-08T06:19:54.561Z,53.00
2023-03-08T06:22:21.542Z,49.30
2023-03-08T06:24:49.209Z,45.00
2023-03-08T06:27:18.339Z,46.70
2023-03-08T06:29:45.772Z,37.70
2023-03-08T06:32:13.727Z,42.00
2023-03-08T06:34:40.348Z,40.50
2023-03-08T06:37:10.103Z,50.30
2023-03-08T06:39:37.413Z,45.10
2023-03-08T06:42:05.891Z,44.10
2023-03-08T06:44:33.766Z,44.60
2023-03-08T06:47:00.651Z,40.70
2023-03-08T06:49:27.162Z,39.30
2023-03-08T06:51:53.780Z,45.00
2023-03-08T06:54:23.874Z,42.00
2023-03-08T06:56:50.492Z,44.00
2023-03-08T06:59:17.208Z,46.10
2023-03-08T07:01:45.359Z,40.90
2023-03-08T07:04:11.971Z,39.20
2023-03-08T07:06:44.289Z,33.50
2023-03-08T07:09:12.607Z,37.10
2023-03-08T07:11:39.641Z,38.30
2023-03-08T07:14:06.297Z,35.20
2023-03-08T07:16:33.376Z,38.30
2023-03-08T07:19:03.861Z,40.20
2023-03-08T07:21:32.911Z,35.40
2023-03-08T07:23:59.977Z,35.20
2023-03-08T07:26:27.124Z,33.40
2023-03-08T07:28:56.575Z,38.00
2023-03-08T07:31:23.152Z,46.10
2023-03-08T07:33:50.335Z,39.90
2023-03-08T07:36:17.745Z,32.60
2023-03-08T07:38:46.322Z,37.50
2023-03-08T07:41:14.110Z,34.70
2023-03-08T07:43:40.807Z,39.00
2023-03-08T07:46:23.205Z,38.40
2023-03-08T07:48:54.762Z,41.30
2023-03-08T07:51:22.219Z,39.60
2023-03-08T07:53:48.819Z,42.40
2023-03-08T07:56:15.546Z,39.90
2023-03-08T07:58:42.194Z,35.80
2023-03-08T08:01:12.138Z,36.50
2023-03-08T08:03:39.142Z,41.00
2023-03-08T08:06:07.128Z,37.80
2023-03-08T08:08:34.120Z,41.40
2023-03-08T08:11:02.487Z,39.80
2023-03-08T08:13:32.240Z,38.70
2023-03-08T08:16:00.118Z,41.70
2023-03-08T08:18:31.336Z,43.10
2023-03-08T08:21:06.234Z,41.10
2023-03-08T08:23:33.484Z,41.30
2023-03-08T08:26:00.272Z,41.60
2023-03-08T08:28:27.577Z,44.70
2023-03-08T08:30:57.842Z,41.10
2023-03-08T08:33:24.933Z,37.80
2023-03-08T08:35:51.842Z,36.80
2023-03-08T08:38:18.374Z,35.00
2023-03-08T08:40:45.288Z,34.40
2023-03-08T08:43:19.165Z,37.80
2023-03-08T08:45:47.725Z,39.10
2023-03-08T08:48:14.535Z,36.20
2023-03-08T08:50:42.246Z,35.60
2023-03-08T08:53:09.695Z,32.30
2023-03-08T08:55:36.625Z,45.20
2023-03-08T08:58:03.587Z,27.70
2023-03-08T09:00:31.365Z,34.80
2023-03-08T09:02:57.900Z,33.80
2023-03-08T09:05:24.631Z,34.00
2023-03-08T09:07:57.814Z,33.20
2023-03-08T09:10:25.369Z,37.20
2023-03-08T09:12:53.789Z,38.00
2023-03-08T09:15:21.197Z,46.80
2023-03-08T09:17:49.367Z,36.80
2023-03-08T09:20:21.505Z,33.80
2023-03-08T09:22:49.587Z,34.70
2023-03-08T09:25:18.914Z,34.30
2023-03-08T09:27:45.677Z,40.70
2023-03-08T09:30:13.893Z,33.50
2023-03-08T09:32:40.570Z,30.60
2023-03-08T09:35:08.303Z,32.50
2023-03-08T09:37:35.141Z,30.10
2023-03-08T09:40:02.025Z,34.30
2023-03-08T09:42:30.439Z,29.10
2023-03-08T09:45:07.887Z,31.70
2023-03-08T09:47:50.208Z,31.90
2023-03-08T09:50:48.974Z,29.60
2023-03-08T09:53:48.557Z,32.80
2023-03-08T09:56:46.244Z,32.40
2023-03-08T09:59:15.981Z,33.60
2023-03-08T10:01:51.360Z,30.20
2023-03-08T10:04:20.726Z,32.40
2023-03-08T10:07:09.905Z,34.90
2023-03-08T10:09:46.413Z,33.90
2023-03-08T10:12:28.850Z,41.20
2023-03-08T10:15:08.531Z,39.70
2023-03-08T10:17:49.656Z,34.20
2023-03-08T10:20:30.619Z,43.50
2023-03-08T10:23:15.727Z,34.40
2023-03-08T10:25:42.548Z,36.10
2023-03-08T10:28:12.515Z,34.40
2023-03-08T10:30:45.162Z,28.30
2023-03-08T10:33:13.267Z,38.20
2023-03-08T10:36:22.263Z,36.20
2023-03-08T10:39:19.348Z,34.10
2023-03-08T10:41:50.973Z,29.60
2023-03-08T10:44:51.528Z,30.70
2023-03-08T10:47:19.972Z,30.20
2023-03-08T10:49:46.927Z,26.20
2023-03-08T10:52:25.022Z,35.20
2023-03-08T10:55:08.383Z,32.30
2023-03-08T10:57:36.722Z,26.70
2023-03-08T11:00:20.161Z,27.10
2023-03-08T11:02:47.629Z,33.20
2023-03-08T11:05:19.120Z,34.40
2023-03-08T11:07:56.524Z,28.30
2023-03-08T11:10:25.528Z,30.70
2023-03-08T11:13:25.143Z,37.50
2023-03-08T11:16:08.402Z,37.50
2023-03-08T11:18:41.362Z,39.00
2023-03-08T11:21:49.915Z,36.10
2023-03-08T11:24:35.179Z,34.60
2023-03-08T11:27:23.884Z,38.30
2023-03-08T11:31:28.167Z,36.10
2023-03-08T11:34:21.616Z,35.20
2023-03-08T11:37:06.605Z,40.10
2023-03-08T11:39:48.995Z,38.30
2023-03-08T11:42:17.190Z,38.00
2023-03-08T11:44:51.669Z,45.50
2023-03-08T11:47:53.368Z,41.00
2023-03-08T11:50:36.153Z,41.00
2023-03-08T11:53:10.811Z,44.60
2023-03-08T11:56:01.051Z,45.30
2023-03-08T11:58:40.200Z,41.00
2023-03-08T12:01:48.917Z,40.30
2023-03-08T12:05:01.756Z,43.20
2023-03-08T12:07:38.713Z,41.80
2023-03-08T12:10:34.562Z,43.10
2023-03-08T12:13:07.173Z,40.20
2023-03-08T12:16:14.070Z,33.90
2023-03-08T12:19:12.625Z,34.10
2023-03-08T12:21:55.780Z,33.30
2023-03-08T12:24:50.095Z,33.10
2023-03-08T12:27:32.851Z,36.50
2023-03-08T12:30:11.494Z,34.20
2023-03-08T12:32:56.439Z,39.20
2023-03-08T12:35:30.947Z,38.80
2023-03-08T12:38:01.326Z,33.80
2023-03-08T12:40:51.185Z,36.30
2023-03-08T12:43:22.044Z,31.40
2023-03-08T12:48:35.675Z,25.60
2023-03-08T12:51:08.207Z,28.60
2023-03-08T12:53:50.253Z,24.30
2023-03-08T12:56:18.296Z,24.10
2023-03-08T12:58:51.075Z,22.90
2023-03-08T13:01:37.779Z,21.80
2023-03-08T13:04:39.753Z,20.00
2023-03-08T13:07:18.166Z,19.50
2023-03-08T13:09:58.670Z,18.20
2023-03-08T13:12:48.688Z,18.80
2023-03-08T13:15:19.424Z,20.20
2023-03-08T13:18:05.841Z,18.20
2023-03-08T13:20:41.893Z,14.80
2023-03-08T13:23:11.592Z,15.70
2023-03-08T13:28:11.271Z,19.10
2023-03-08T13:30:47.115Z,19.30
2023-03-08T13:33:31.460Z,16.90
2023-03-08T13:36:01.374Z,20.00
2023-03-08T13:38:34.334Z,19.40
2023-03-08T13:41:02.590Z,18.20
2023-03-08T13:43:33.318Z,20.70
2023-03-08T13:46:06.365Z,17.50
2023-03-08T13:48:37.137Z,17.90
2023-03-08T13:51:05.236Z,20.60
2023-03-08T13:53:35.512Z,21.00
2023-03-08T13:56:05.428Z,20.30
2023-03-08T13:58:35.150Z,18.50
2023-03-08T14:01:15.891Z,22.10
2023-03-08T14:03:45.099Z,19.20
2023-03-08T14:06:23.604Z,19.80
2023-03-08T14:08:52.126Z,18.90
2023-03-08T14:11:25.710Z,20.70
2023-03-08T14:13:57.746Z,19.30
2023-03-08T14:16:37.231Z,20.40
2023-03-08T14:19:15.089Z,22.90
2023-03-08T14:21:58.063Z,21.10
2023-03-08T14:24:28.226Z,20.50
2023-03-08T14:27:31.240Z,25.70
2023-03-08T14:30:04.882Z,19.50
2023-03-08T14:32:38.492Z,22.30
2023-03-08T14:35:19.741Z,23.40
2023-03-08T14:37:48.135Z,21.50
2023-03-08T14:40:29.707Z,27.20
2023-03-08T14:43:06.013Z,23.50
2023-03-08T14:45:37.062Z,20.20
2023-03-08T14:48:18.034Z,21.80
2023-03-08T14:51:02.654Z,21.10
2023-03-08T14:53:36.775Z,20.40
2023-03-08T14:56:17.178Z,22.70
2023-03-08T14:58:50.666Z,21.70
2023-03-08T15:01:31.801Z,22.00
2023-03-08T15:03:59.975Z,23.60
2023-03-08T15:06:32.733Z,22.10
2023-03-08T15:09:01.477Z,22.50
2023-03-08T15:11:31.668Z,25.40
2023-03-08T15:13:59.625Z,22.50
2023-03-08T15:16:31.138Z,22.70
2023-03-08T15:18:59.400Z,22.20
2023-03-08T15:21:28.140Z,22.30
2023-03-08T15:23:59.133Z,24.60
2023-03-08T15:26:29.011Z,21.70
2023-03-08T15:28:57.833Z,24.50
2023-03-08T15:31:27.452Z,24.30
2023-03-08T15:33:55.335Z,21.70
2023-03-08T15:36:25.129Z,23.60
2023-03-08T15:38:53.274Z,26.50
2023-03-08T15:41:21.280Z,18.20
2023-03-08T15:43:51.480Z,22.70
2023-03-08T15:46:21.855Z,24.50
2023-03-08T15:48:51.285Z,21.70
2023-03-08T15:51:20.923Z,21.50
2023-03-08T15:53:49.033Z,20.00
2023-03-08T15:56:16.952Z,22.70
2023-03-08T15:58:46.433Z,22.30
2023-03-08T16:01:14.753Z,22.50
2023-03-08T16:03:43.065Z,24.50
2023-03-08T16:06:12.251Z,18.80
2023-03-08T16:08:41.083Z,23.30
2023-03-08T16:11:16.860Z,21.50
2023-03-08T16:13:48.402Z,23.90
2023-03-08T16:16:16.348Z,28.80
2023-03-08T16:18:53.783Z,26.40
2023-03-08T16:21:21.862Z,24.40
2023-03-08T16:23:49.759Z,29.00
2023-03-08T16:26:17.949Z,25.60
2023-03-08T16:28:46.866Z,24.70
2023-03-08T16:31:15.375Z,26.60
2023-03-08T16:33:43.652Z,26.80
2023-03-08T16:36:12.051Z,33.60
2023-03-08T16:38:43.356Z,34.00
2023-03-08T16:41:13.515Z,51.80
2023-03-08T16:43:48.291Z,63.20
2023-03-08T16:46:20.945Z,31.90
2023-03-08T16:48:50.169Z,28.30
2023-03-08T16:51:19.778Z,25.40
2023-03-08T16:53:48.274Z,22.00
2023-03-08T16:56:21.081Z,24.10
2023-03-08T16:58:49.107Z,20.40
2023-03-08T17:01:26.249Z,22.40
2023-03-08T17:03:55.968Z,19.00
2023-03-08T17:06:25.714Z,22.70
2023-03-08T17:08:54.141Z,17.50
2023-03-08T17:11:27.353Z,20.20
2023-03-08T17:13:58.786Z,15.80
2023-03-08T17:16:28.424Z,16.60
2023-03-08T17:18:57.757Z,17.50
2023-03-08T17:21:26.391Z,20.10
2023-03-08T17:23:54.586Z,20.20
2023-03-08T17:26:23.248Z,20.70
2023-03-08T17:28:52.391Z,22.90
2023-03-08T17:31:21.896Z,21.90
2023-03-08T17:33:50.755Z,22.50
2023-03-08T17:36:22.511Z,24.30
2023-03-08T17:38:53.638Z,22.50
2023-03-08T17:41:25.810Z,34.60
2023-03-08T17:43:53.993Z,35.50
2023-03-08T17:46:23.461Z,21.80
2023-03-08T17:48:53.264Z,23.90
2023-03-08T17:51:29.393Z,27.00
2023-03-08T17:53:58.248Z,28.50
2023-03-08T17:56:29.368Z,27.20
2023-03-08T17:59:03.775Z,33.90
2023-03-08T18:01:32.275Z,30.20
2023-03-08T18:04:00.756Z,29.70
2023-03-08T18:06:33.616Z,27.30
2023-03-08T18:09:03.818Z,26.40
2023-03-08T18:11:37.327Z,29.00
2023-03-08T18:14:05.901Z,23.20
2023-03-08T18:16:33.981Z,19.90
2023-03-08T18:19:07.979Z,24.20
2023-03-08T18:21:36.634Z,25.30
2023-03-08T18:24:05.375Z,31.50
2023-03-08T18:26:36.732Z,34.70
2023-03-08T18:29:04.776Z,25.70
2023-03-08T18:31:35.227Z,38.50
2023-03-08T18:34:03.575Z,30.10
2023-03-08T18:36:31.802Z,50.90
2023-03-08T18:38:59.924Z,66.50
2023-03-08T18:41:29.590Z,61.50
2023-03-08T18:44:01.223Z,62.70
2023-03-08T18:46:31.616Z,51.70
2023-03-08T18:49:07.901Z,39.80
2023-03-08T18:51:37.414Z,36.20
2023-03-08T18:54:09.257Z,29.90
2023-03-08T18:56:39.109Z,30.60
2023-03-08T18:59:07.879Z,37.00
2023-03-08T19:01:36.819Z,32.80
2023-03-08T19:04:06.327Z,36.90
2023-03-08T19:06:35.208Z,31.70
2023-03-08T19:09:11.013Z,27.20
2023-03-08T19:11:39.378Z,35.50
2023-03-08T19:14:07.971Z,34.90
2023-03-08T19:16:36.743Z,30.20
2023-03-08T19:19:07.275Z,32.00
2023-03-08T19:21:37.939Z,34.70
2023-03-08T19:24:06.140Z,45.30
2023-03-08T19:26:38.918Z,40.10
2023-03-08T19:29:23.173Z,52.90
2023-03-08T19:31:53.184Z,54.90
2023-03-08T19:34:26.413Z,43.50
2023-03-08T19:36:54.382Z,40.90
2023-03-08T19:39:27.773Z,59.20
2023-03-08T19:42:00.701Z,39.50
2023-03-08T19:44:29.033Z,41.60
2023-03-08T19:46:59.663Z,42.50
2023-03-08T19:49:30.153Z,40.70
2023-03-08T19:51:59.702Z,47.30
2023-03-08T19:54:28.292Z,48.50
2023-03-08T19:56:56.381Z,36.50
2023-03-08T19:59:31.072Z,34.00
2023-03-08T20:01:59.007Z,27.60
2023-03-08T20:04:27.226Z,33.10
2023-03-08T20:07:01.391Z,37.40
2023-03-08T20:09:30.047Z,44.50
2023-03-08T20:11:59.894Z,51.80
2023-03-08T20:14:29.374Z,45.10
2023-03-08T20:16:59.133Z,39.50
2023-03-08T20:19:31.859Z,44.00
2023-03-08T20:22:00.688Z,37.70
2023-03-08T20:24:35.467Z,41.20
2023-03-08T20:27:04.239Z,34.40
2023-03-08T20:29:32.211Z,34.50
2023-03-08T20:32:00.348Z,37.80
2023-03-08T20:34:29.549Z,35.60
2023-03-08T20:36:58.277Z,37.10
2023-03-08T20:39:26.948Z,36.90
2023-03-08T20:41:56.184Z,31.50
2023-03-08T20:44:24.634Z,41.40
2023-03-08T20:46:53.590Z,37.00
2023-03-08T20:49:21.552Z,32.20
2023-03-08T20:51:49.776Z,37.50
2023-03-08T20:54:22.918Z,34.00
2023-03-08T20:56:50.822Z,34.00
2023-03-08T20:59:23.222Z,42.00
2023-03-08T21:01:51.597Z,38.50
2023-03-08T21:04:20.073Z,50.40
2023-03-08T21:06:55.597Z,78.50
2023-03-08T21:09:23.679Z,68.50
2023-03-08T21:11:51.777Z,54.10
2023-03-08T21:14:23.904Z,51.90
2023-03-08T21:16:52.986Z,43.60
2023-03-08T21:19:22.149Z,67.20
2023-03-08T21:21:51.407Z,54.20
2023-03-08T21:24:21.215Z,62.70
2023-03-08T21:26:50.021Z,64.00
2023-03-08T21:29:19.397Z,58.10
2023-03-08T21:31:52.126Z,54.10
2023-03-08T21:34:20.937Z,48.60
2023-03-08T21:36:49.096Z,48.30
2023-03-08T21:39:17.146Z,85.90
2023-03-08T21:41:46.836Z,88.20
2023-03-08T21:44:17.932Z,104.30
2023-03-08T21:46:46.663Z,100.40
2023-03-08T21:49:17.778Z,76.10
2023-03-08T21:51:45.785Z,101.10
2023-03-08T21:54:14.171Z,86.00
2023-03-08T21:56:42.094Z,106.90
2023-03-08T21:59:10.183Z,88.60
2023-03-08T22:01:39.109Z,69.50
2023-03-08T22:04:07.208Z,97.20
2023-03-08T22:06:35.287Z,109.60
2023-03-08T22:09:09.966Z,107.90
2023-03-08T22:11:38.248Z,113.50
2023-03-08T22:14:06.623Z,106.40
2023-03-08T22:16:38.051Z,131.40
2023-03-08T22:19:06.254Z,122.40
2023-03-08T22:21:34.352Z,98.90
2023-03-08T22:24:02.941Z,126.60
2023-03-08T22:26:31.218Z,123.10
2023-03-08T22:29:00.073Z,89.90
2023-03-08T22:31:29.112Z,123.70
2023-03-08T22:33:58.672Z,105.40
2023-03-08T22:36:29.818Z,114.80
2023-03-08T22:38:57.880Z,128.80
2023-03-08T22:41:26.837Z,94.50
2023-03-08T22:43:55.078Z,99.20
2023-03-08T22:46:26.007Z,99.30
2023-03-08T22:48:56.559Z,90.20
2023-03-08T22:51:24.945Z,104.20
2023-03-08T22:53:52.946Z,81.40
2023-03-08T22:56:25.871Z,102.60
2023-03-08T22:58:53.794Z,106.60
2023-03-08T23:01:22.814Z,85.70
2023-03-08T23:03:53.691Z,82.50
2023-03-08T23:06:22.031Z,67.00
2023-03-08T23:08:50.577Z,74.10
2023-03-08T23:11:23.872Z,71.40
2023-03-08T23:13:52.706Z,68.10
2023-03-08T23:16:20.882Z,66.30
2023-03-08T23:18:49.706Z,69.40
2023-03-08T23:21:18.688Z,59.50
2023-03-08T23:23:46.762Z,63.60
2023-03-08T23:26:17.951Z,53.20
2023-03-08T23:28:45.985Z,41.60
2023-03-08T23:31:19.818Z,60.40
2023-03-08T23:33:49.097Z,54.20
